Погода Ал Кгумсна неделю

Бенгази, Ливия

15 - 21 июля
  • 15июля
    Сегодня
    +25°
    +35°
    Ясно и безоблачно
    ВремяПогодаТемператураВлажностьДавлениеВетер, м/сВероятность осадков
    02:00Ясно и безоблачно+29°C49 %756 мм3.6 м/с1 %
    05:00Ясно и безоблачно+28°C51 %756 мм3.4 м/с1 %
    08:00Ясно и безоблачно+30°C48 %757 мм2.4 м/с1 %
    11:00Ясно и безоблачно+34°C37 %757 мм5.3 м/с1 %
    14:00Ясно и безоблачно+35°C41 %756 мм6.5 м/с1 %
    17:00Ясно и безоблачно+33°C48 %755 мм5.8 м/с1 %
    20:00Ясно и безоблачно+30°C67 %756 мм3.7 м/с1 %
    23:00Ясно и безоблачно+28°C83 %757 мм1.6 м/с1 %
  • 16июля
    Вторник
    +24°
    +32°
    Ясно и безоблачно
    ВремяПогодаТемператураВлажностьДавлениеВетер, м/сВероятность осадков
    02:00Ясно и безоблачно+27°C90 %757 мм1.2 м/с1 %
    05:00Ясно и безоблачно+26°C75 %757 мм1.4 м/с1 %
    08:00Ясно и безоблачно+28°C69 %758 мм0.4 м/с1 %
    11:00Ясно и безоблачно+31°C56 %758 мм4.3 м/с1 %
    14:00Ясно и безоблачно+32°C51 %758 мм4.9 м/с1 %
    17:00Ясно и безоблачно+31°C59 %757 мм4.8 м/с1 %
    20:00Ясно и безоблачно+29°C81 %758 мм2.9 м/с1 %
    23:00Ясно и безоблачно+27°C91 %758 мм1.2 м/с1 %
  • 17июля
    Среда
    +25°
    +32°
    Ясно и безоблачно
    ВремяПогодаТемператураВлажностьДавлениеВетер, м/сВероятность осадков
    02:00Ясно и безоблачно+26°C89 %758 мм1.9 м/с1 %
    05:00Ясно и безоблачно+25°C75 %758 мм2.1 м/с1 %
    08:00Ясно и безоблачно+28°C54 %759 мм1.9 м/с1 %
    11:00Ясно и безоблачно+30°C58 %759 мм5.4 м/с1 %
    14:00Ясно и безоблачно+31°C54 %759 мм5.3 м/с1 %
    17:00Ясно и безоблачно+31°C60 %758 мм5.4 м/с1 %
    20:00Ясно и безоблачно+28°C83 %758 мм3.7 м/с1 %
    23:00Ясно и безоблачно+27°C90 %759 мм2.1 м/с1 %
  • 18июля
    Четверг
    +25°
    +32°
    Ясно и безоблачно
    ВремяПогодаТемператураВлажностьДавлениеВетер, м/сВероятность осадков
    02:00Практически безоблачно+26°C94 %758 мм2.3 м/с1 %
    05:00Практически безоблачно+26°C95 %758 мм2.9 м/с1 %
    08:00Ясно и безоблачно+27°C86 %759 мм2.2 м/с1 %
    11:00Ясно и безоблачно+30°C66 %760 мм5.1 м/с1 %
    14:00Ясно и безоблачно+31°C65 %759 мм5.3 м/с1 %
    17:00Ясно и безоблачно+31°C67 %758 мм4.8 м/с1 %
    20:00Ясно и безоблачно+29°C82 %759 мм2.6 м/с1 %
    23:00Ясно и безоблачно+27°C92 %759 мм1.2 м/с1 %
  • 19июля
    Пятница
    +26°
    +32°
    Ясно и безоблачно
    ВремяПогодаТемператураВлажностьДавлениеВетер, м/сВероятность осадков
    02:00Ясно и безоблачно+27°C90 %758 мм1.9 м/с1 %
    05:00Ясно и безоблачно+26°C83 %758 мм2.8 м/с1 %
    08:00Ясно и безоблачно+28°C65 %759 мм2.7 м/с1 %
    11:00Ясно и безоблачно+31°C50 %759 мм5.7 м/с1 %
    14:00Ясно и безоблачно+32°C50 %758 мм6.2 м/с1 %
    17:00Ясно и безоблачно+31°C50 %757 мм5.6 м/с1 %
    20:00Ясно и безоблачно+29°C76 %757 мм3.8 м/с1 %
    23:00Ясно и безоблачно+27°C90 %757 мм2.6 м/с1 %
Мы используем cookies
Соглашаюсь